VG13 weather

White Stone Heliport
White Stone, Virginia, United States

Public forecast

Using degrees Fahrenheit for public forecast. Weather courtesy of forecast.io.

METAR (pilot weather report)

Closest report is Middle Peninsula Regional Airport, 19.5 nm (36.1 km) WSW. Retrieved 2019/07/17 12:35 UTC (0 seconds ago):

KFYJ 171235Z AUTO 20005KT 10SM CLR 28/25 A3004 RMK AO1 T02750247

TAF (pilot weather forecast)

Closest forecast is Newport News Williamsburg International Airport, 31.4 nm (58.2 km) S. Retrieved 2019/07/17 12:22 UTC (9 minutes ago):

TAF KPHF 171120Z 1712/1812 22006KT P6SM SKC FM171500 23011KT P6SM SCT050 SCT250 FM172000 21011KT P6SM VCSH BKN045 FM180100 20010KT P6SM SCT090